Time;durP1;ratioP1;P1;durP2;ratioP2;P2;SDS_P1;SDS_P2;PMS_P1;PMS_P2;Temp;Humidity;BMP_temperature;BMP_pressure;BME280_temperature;BME280_humidity;BME280_pressure;Samples;Min_cycle;Max_cycle;Signal;HPM_P1;HPM_P2
2021/12/21 00:00:56;;;;;;;0.60;0.60;;;;;;;7.88;61.70;101360.38;6222854;23;20016;-75
2021/12/21 00:03:22;;;;;;;2.72;0.77;;;;;;;7.95;61.98;101373.94;6248205;23;20073;-76
2021/12/21 00:05:51;;;;;;;1.00;0.60;;;;;;;7.84;61.39;101356.44;6247836;23;20091;-76
2021/12/21 00:08:17;;;;;;;4.88;0.52;;;;;;;7.86;61.92;101363.31;6249759;23;20004;-76
2021/12/21 00:11:16;;;;;;;1.42;1.20;;;;;;;7.89;61.77;101359.31;6247640;22;20030;-76
2021/12/21 00:13:59;;;;;;;1.52;0.57;;;;;;;7.88;62.13;101356.81;6237575;23;20023;-75
2021/12/21 00:21:41;;;;;;;1.65;0.73;;;;;;;7.92;61.75;101364.31;6258864;23;20016;-75
2021/12/21 00:24:18;;;;;;;0.75;0.55;;;;;;;7.68;62.25;101330.63;6199214;23;20331;-74
2021/12/21 00:26:50;;;;;;;2.35;0.70;;;;;;;7.75;62.24;101346.91;6251467;23;20435;-76
2021/12/21 00:29:16;;;;;;;0.75;0.50;;;;;;;7.68;61.85;101333.34;6251132;23;20028;-75
2021/12/21 00:31:51;;;;;;;0.70;0.70;;;;;;;7.82;62.04;101356.66;6249663;23;20666;-74
2021/12/21 00:34:30;;;;;;;;;;;;;;;;;;;;;
2021/12/21 00:36:57;;;;;;;0.93;0.55;;;;;;;7.69;62.61;101341.31;6250837;23;20030;-75
2021/12/21 00:39:23;;;;;;;1.58;0.63;;;;;;;7.64;62.40;101332.16;6250013;23;20028;-76
2021/12/21 00:41:49;;;;;;;1.42;0.60;;;;;;;7.67;62.24;101339.84;6224501;23;20007;-77
2021/12/21 00:44:14;;;;;;;0.70;0.65;;;;;;;7.61;62.62;101318.97;6224654;23;20434;-77
2021/12/21 00:46:44;;;;;;;5.82;0.70;;;;;;;7.77;62.51;101333.88;6225523;23;20010;-77
2021/12/21 00:49:17;;;;;;;4.22;0.80;;;;;;;7.73;62.74;101319.06;6250090;23;20031;-75
2021/12/21 00:51:46;;;;;;;2.58;0.98;;;;;;;7.81;62.64;101325.06;6252210;23;20014;-77
2021/12/21 00:54:13;;;;;;;2.10;1.15;;;;;;;7.82;62.31;101326.69;6225223;23;20012;-80
2021/12/21 00:56:43;;;;;;;1.10;0.77;;;;;;;7.66;62.04;101305.50;6251872;23;20004;-76
2021/12/21 00:59:09;;;;;;;6.13;1.17;;;;;;;7.61;62.70;101308.91;6198540;23;20008;-77
2021/12/21 01:01:36;;;;;;;5.60;1.63;;;;;;;7.67;62.59;101326.25;6250910;23;20067;-76
2021/12/21 01:04:07;;;;;;;6.53;1.50;;;;;;;7.66;62.77;101322.66;6226649;23;20004;-76
2021/12/21 01:06:56;;;;;;;6.25;1.75;;;;;;;7.64;62.17;101318.53;6250967;23;20000;-75
2021/12/21 01:12:09;;;;;;;5.38;1.83;;;;;;;7.53;62.89;101321.97;6264438;22;20031;-76
2021/12/21 01:17:28;;;;;;;6.38;2.25;;;;;;;7.54;62.18;101318.22;6271286;22;20008;-76
2021/12/21 01:20:24;;;;;;;4.55;2.03;;;;;;;7.48;62.43;101320.75;6259367;22;20008;-77
2021/12/21 01:25:28;;;;;;;4.90;1.38;;;;;;;7.47;63.34;101318.25;6266345;22;20007;-77
2021/12/21 01:35:32;;;;;;;2.45;1.63;;;;;;;7.37;62.95;101324.19;6256050;22;20028;-74
2021/12/21 01:38:09;;;;;;;9.10;1.95;;;;;;;7.36;63.12;101319.84;6257280;22;20118;-75
2021/12/21 01:43:38;;;;;;;3.72;1.55;;;;;;;7.29;63.15;101321.78;6284532;22;20035;-74
2021/12/21 01:51:40;;;;;;;1.48;1.10;;;;;;;7.30;63.31;101312.53;6127386;23;20014;-74
2021/12/21 01:54:05;;;;;;;1.42;0.90;;;;;;;7.30;63.55;101312.53;6078625;23;20107;-74
2021/12/21 01:56:32;;;;;;;5.18;1.13;;;;;;;7.29;63.87;101313.63;6198001;22;20456;-73
2021/12/21 01:58:57;;;;;;;1.08;0.90;;;;;;;7.32;64.27;101322.16;6281502;22;20307;-73
2021/12/21 02:01:38;;;;;;;;;;;;;;;;;;;;;
2021/12/21 02:04:04;;;;;;;8.02;1.52;;;;;;;7.26;63.43;101301.28;6277673;22;20019;-73
2021/12/21 02:06:30;;;;;;;5.07;1.95;;;;;;;7.26;63.28;101305.91;6283432;22;20014;-74
2021/12/21 02:08:57;;;;;;;4.22;1.67;;;;;;;7.21;63.24;101298.38;6226592;22;20014;-74
2021/12/21 02:11:23;;;;;;;1.27;1.15;;;;;;;7.22;63.48;101305.50;6271364;22;20562;-73
2021/12/21 02:13:50;;;;;;;1.40;1.10;;;;;;;7.21;63.94;101308.44;6241821;23;20687;-75
2021/12/21 02:16:38;;;;;;;4.45;1.20;;;;;;;7.12;64.03;101289.66;6246080;23;20330;-75
2021/12/21 02:19:14;;;;;;;3.17;1.25;;;;;;;7.08;63.34;101293.91;6244920;23;20000;-73
2021/12/21 02:21:46;;;;;;;3.10;1.60;;;;;;;7.02;63.87;101289.34;6246182;23;20004;-75
2021/12/21 02:24:17;;;;;;;5.28;1.40;;;;;;;6.93;64.48;101285.22;6221271;23;20011;-74
2021/12/21 02:26:55;;;;;;;3.13;1.23;;;;;;;6.90;63.60;101291.09;6221135;23;20058;-74
2021/12/21 02:29:28;;;;;;;3.03;1.40;;;;;;;6.74;64.06;101282.41;6218655;23;20000;-74
2021/12/21 02:31:55;;;;;;;6.10;1.42;;;;;;;6.66;64.50;101290.84;6249434;23;20058;-75
2021/12/21 02:34:25;;;;;;;4.70;1.20;;;;;;;6.55;64.16;101277.97;6228435;23;20030;-78
2021/12/21 02:36:52;;;;;;;1.40;1.27;;;;;;;6.40;64.98;101265.50;6234877;23;20015;-78
2021/12/21 02:39:19;;;;;;;2.67;1.23;;;;;;;6.37;63.88;101287.66;6229748;23;20007;-77
2021/12/21 02:41:45;;;;;;;2.00;1.10;;;;;;;6.29;64.83;101279.75;6261109;23;20008;-78
2021/12/21 02:44:11;;;;;;;2.20;0.90;;;;;;;6.20;64.80;101281.06;6254329;23;20003;-79
2021/12/21 02:46:41;;;;;;;3.60;1.50;;;;;;;6.08;64.27;101281.72;6229217;23;20000;-77
2021/12/21 02:49:08;;;;;;;1.17;1.08;;;;;;;6.03;65.52;101276.13;6226760;23;20058;-76
2021/12/21 02:51:38;;;;;;;1.15;1.00;;;;;;;5.99;64.87;101274.88;6249684;23;20004;-75
2021/12/21 02:54:03;;;;;;;0.80;0.75;;;;;;;5.95;65.42;101296.16;6226968;23;20034;-75
2021/12/21 02:56:31;;;;;;;2.53;1.30;;;;;;;5.97;65.75;101276.97;6201253;23;20004;-75
2021/12/21 02:58:57;;;;;;;3.33;1.58;;;;;;;5.95;65.99;101281.75;6201792;23;20418;-74
2021/12/21 03:01:35;;;;;;;;;;;;;;;;;;;;;
2021/12/21 03:04:06;;;;;;;1.08;0.98;;;;;;;5.91;66.02;101272.38;6251773;23;20022;-78
2021/12/21 03:09:13;;;;;;;3.25;1.40;;;;;;;5.89;66.02;101279.91;6238229;23;20073;-75
2021/12/21 03:11:55;;;;;;;1.40;1.30;;;;;;;5.82;65.48;101273.66;6234081;22;20042;-77
2021/12/21 03:14:21;;;;;;;1.58;1.02;;;;;;;5.85;66.48;101286.81;6234438;22;20015;-78
2021/12/21 03:16:59;;;;;;;;;;;;;;;;;;;;;
2021/12/21 03:20:07;;;;;;;2.28;0.93;;;;;;;5.84;65.48;101287.84;6288324;22;20015;-79
2021/12/21 03:22:35;;;;;;;0.30;0.30;;;;;;;5.63;65.72;101254.50;6282204;22;20000;-81
2021/12/21 03:25:02;;;;;;;1.25;0.63;;;;;;;5.59;66.00;101247.81;6252205;22;20008;-73
2021/12/21 03:27:35;;;;;;;0.95;0.93;;;;;;;5.75;66.22;101268.25;6271592;22;20004;-72
2021/12/21 03:30:01;;;;;;;3.38;0.50;;;;;;;5.75;66.42;101279.94;6244142;22;20311;-72
2021/12/21 03:32:27;;;;;;;11.43;0.98;;;;;;;5.69;66.68;101274.53;6273361;22;20053;-73
2021/12/21 03:34:52;;;;;;;2.25;0.68;;;;;;;5.69;66.70;101279.94;6246602;22;20014;-72
2021/12/21 03:37:21;;;;;;;2.58;0.90;;;;;;;5.53;66.45;101249.50;6272740;22;20007;-72
2021/12/21 03:39:46;;;;;;;1.73;0.98;;;;;;;5.70;66.92;101273.50;6265071;22;20010;-70
2021/12/21 03:42:14;;;;;;;1.95;0.98;;;;;;;5.57;66.37;101249.94;6244386;22;20008;-71
2021/12/21 03:44:43;;;;;;;2.45;1.42;;;;;;;5.61;66.46;101256.59;6272004;22;20303;-71
2021/12/21 03:47:10;;;;;;;1.45;0.70;;;;;;;5.57;66.09;101244.50;6246783;22;20007;-76
2021/12/21 03:52:11;;;;;;;2.78;1.30;;;;;;;5.67;67.08;101252.22;6290096;22;20008;-76
2021/12/21 03:54:39;;;;;;;2.13;1.25;;;;;;;5.71;66.70;101256.13;6252128;22;20003;-77
2021/12/21 03:57:08;;;;;;;2.17;0.85;;;;;;;5.64;66.06;101250.75;6251689;22;20007;-76
2021/12/21 03:59:36;;;;;;;1.35;1.25;;;;;;;5.70;67.07;101265.34;6281036;22;20000;-75
2021/12/21 04:02:26;;;;;;;1.38;1.05;;;;;;;5.65;66.55;101263.28;6255022;22;20003;-75
2021/12/21 04:04:53;;;;;;;3.50;0.88;;;;;;;5.60;66.55;101257.63;6254513;22;20015;-76
2021/12/21 04:07:27;;;;;;;1.70;0.88;;;;;;;5.68;66.92;101268.28;6252285;22;20010;-75
2021/12/21 04:09:56;;;;;;;2.28;1.23;;;;;;;5.74;66.85;101261.16;6254508;22;20035;-75
2021/12/21 04:12:22;;;;;;;2.60;1.60;;;;;;;5.76;67.02;101249.03;6249087;22;20023;-75
2021/12/21 04:14:47;;;;;;;3.17;1.27;;;;;;;5.92;67.19;101257.75;6247011;23;20015;-75
2021/12/21 04:17:25;;;;;;;0.98;0.80;;;;;;;5.93;66.31;101252.09;6249682;23;20035;-77
2021/12/21 04:19:58;;;;;;;2.15;0.80;;;;;;;5.95;66.59;101251.88;6248444;23;20004;-74
2021/12/21 04:22:34;;;;;;;;;;;;;;;;;;;;;
2021/12/21 04:25:02;;;;;;;2.20;0.90;;;;;;;5.99;66.94;101245.03;6251388;23;20031;-74
2021/12/21 04:27:28;;;;;;;0.60;0.60;;;;;;;5.91;66.62;101237.06;6253026;23;20000;-75
2021/12/21 04:30:12;;;;;;;0.70;0.70;;;;;;;5.88;66.99;101229.38;6253008;22;20342;-74
2021/12/21 04:32:38;;;;;;;0.80;0.80;;;;;;;6.09;66.35;101250.81;6253238;22;20031;-74
2021/12/21 04:35:07;;;;;;;0.50;0.50;;;;;;;5.99;66.92;101226.00;6250797;23;20728;-74
2021/12/21 04:37:40;;;;;;;2.35;0.77;;;;;;;6.10;66.58;101238.06;6249086;22;20007;-75
2021/12/21 04:40:11;;;;;;;1.83;0.73;;;;;;;6.15;66.54;101246.41;6253411;23;20091;-75
2021/12/21 04:42:37;;;;;;;1.30;0.77;;;;;;;6.13;66.50;101244.94;6253003;23;20004;-76
2021/12/21 04:45:03;;;;;;;0.43;0.40;;;;;;;6.16;66.38;101252.66;6227408;23;20027;-76
2021/12/21 04:47:28;;;;;;;0.70;0.63;;;;;;;6.10;67.47;101233.50;6255309;22;20079;-73
2021/12/21 04:49:55;;;;;;;1.52;0.47;;;;;;;6.16;67.00;101226.31;6250774;23;20008;-74
2021/12/21 04:52:20;;;;;;;0.73;0.50;;;;;;;6.26;67.44;101237.59;6252519;22;20032;-74
2021/12/21 04:54:46;;;;;;;1.00;0.63;;;;;;;6.21;66.23;101225.69;6251261;22;20035;-76
2021/12/21 04:57:11;;;;;;;5.85;1.63;;;;;;;6.19;66.12;101236.78;6248905;23;20008;-74
2021/12/21 04:59:37;;;;;;;3.10;1.40;;;;;;;6.12;66.38;101233.28;6253211;22;20011;-74
2021/12/21 05:02:03;;;;;;;2.75;1.30;;;;;;;6.06;66.97;101240.41;6221585;23;20188;-74
2021/12/21 05:04:28;;;;;;;4.03;1.63;;;;;;;6.04;66.82;101238.94;6226922;23;20452;-73
2021/12/21 05:06:54;;;;;;;3.05;1.40;;;;;;;6.07;67.08;101254.78;6247364;22;20054;-75
2021/12/21 05:09:28;;;;;;;2.70;1.42;;;;;;;6.05;66.70;101241.44;6250948;23;20064;-76
2021/12/21 05:12:02;;;;;;;1.50;1.40;;;;;;;6.10;66.76;101249.78;6256700;22;20043;-74
2021/12/21 05:14:28;;;;;;;2.88;1.52;;;;;;;6.14;67.40;101249.34;6284129;22;20007;-75
2021/12/21 05:16:54;;;;;;;2.97;1.52;;;;;;;6.15;67.43;101245.56;6252068;22;20011;-75
2021/12/21 05:19:19;;;;;;;2.10;1.88;;;;;;;6.17;66.65;101254.34;6283585;22;20000;-77
2021/12/21 05:21:45;;;;;;;1.45;1.40;;;;;;;6.17;66.48;101244.31;6285164;22;20031;-75
2021/12/21 05:24:10;;;;;;;1.20;1.10;;;;;;;6.19;67.31;101253.09;6296927;22;20011;-73
2021/12/21 05:26:37;;;;;;;1.50;1.13;;;;;;;6.19;66.92;101249.50;6300399;22;19992;-75
2021/12/21 05:29:06;;;;;;;2.67;2.25;;;;;;;6.22;67.27;101249.06;6248294;22;20011;-75
2021/12/21 05:31:32;;;;;;;1.35;1.13;;;;;;;6.25;66.67;101251.34;6272628;22;20027;-76
2021/12/21 05:33:58;;;;;;;1.73;1.52;;;;;;;6.24;66.65;101244.28;6300157;22;19995;-73
2021/12/21 05:36:23;;;;;;;2.28;1.83;;;;;;;6.19;67.41;101235.94;6299852;22;20018;-76
2021/12/21 05:38:53;;;;;;;2.53;2.30;;;;;;;6.26;66.97;101247.59;6297758;22;19999;-74
2021/12/21 05:41:26;;;;;;;2.58;2.20;;;;;;;6.25;66.49;101243.22;6268399;22;19996;-76
2021/12/21 05:43:52;;;;;;;5.18;1.73;;;;;;;6.30;67.52;101251.56;6296083;22;19996;-75
2021/12/21 05:46:18;;;;;;;4.32;1.83;;;;;;;6.26;67.40;101242.16;6273805;22;20058;-74
2021/12/21 05:48:44;;;;;;;3.88;2.05;;;;;;;6.32;67.30;101243.19;6272650;22;20539;-75
2021/12/21 05:51:09;;;;;;;2.97;1.52;;;;;;;6.36;66.39;101253.38;6274846;22;19998;-76
2021/12/21 05:53:34;;;;;;;1.52;1.42;;;;;;;6.34;67.11;101255.50;6298853;22;20000;-75
2021/12/21 05:56:00;;;;;;;0.80;0.80;;;;;;;6.41;67.49;101256.31;6292380;22;20035;-76
2021/12/21 05:58:25;;;;;;;2.63;1.73;;;;;;;6.38;67.30;101251.31;6279226;22;20418;-74
2021/12/21 06:00:51;;;;;;;2.05;1.45;;;;;;;6.39;66.95;101250.22;6258315;22;20074;-74
2021/12/21 06:03:16;;;;;;;4.82;1.75;;;;;;;6.41;67.05;101245.44;6286378;22;20012;-76
2021/12/21 06:05:43;;;;;;;1.88;1.63;;;;;;;6.39;66.84;101255.66;6261920;22;20008;-75
2021/12/21 06:08:12;;;;;;;2.35;1.50;;;;;;;6.35;66.69;101246.31;6260212;22;20011;-75
2021/12/21 06:10:40;;;;;;;2.47;1.33;;;;;;;6.40;66.05;101249.19;6260256;22;20015;-76
2021/12/21 06:26:16;;;;;;;4.57;1.83;;;;;;;6.28;66.22;101245.50;6263328;22;20102;-75
2021/12/21 06:28:44;;;;;;;1.80;1.70;;;;;;;6.27;66.90;101235.69;6261060;22;20011;-75
2021/12/21 06:31:09;;;;;;;2.15;2.05;;;;;;;6.25;65.78;101237.78;6284257;22;20003;-72
2021/12/21 06:33:35;;;;;;;2.38;2.17;;;;;;;6.24;65.51;101247.81;6282231;22;20007;-75
2021/12/21 06:36:02;;;;;;;1.83;1.70;;;;;;;6.21;66.08;101245.53;6255688;22;20004;-74
2021/12/21 06:38:27;;;;;;;2.08;1.90;;;;;;;6.25;66.52;101245.91;6282774;22;20004;-72
2021/12/21 06:40:53;;;;;;;5.15;2.28;;;;;;;6.23;66.00;101248.84;6288036;22;20018;-76
2021/12/21 06:43:19;;;;;;;2.25;2.15;;;;;;;6.28;66.44;101245.50;6258886;22;20000;-73
2021/12/21 06:45:55;;;;;;;3.83;2.25;;;;;;;6.25;65.78;101251.34;6263859;22;20011;-77
2021/12/21 06:53:35;;;;;;;3.25;2.20;;;;;;;6.26;66.00;101242.16;6296291;22;20063;-77
2021/12/21 06:56:04;;;;;;;3.45;2.72;;;;;;;6.21;65.23;101229.25;6260003;22;20082;-77
2021/12/21 06:58:29;;;;;;;2.50;2.33;;;;;;;6.28;65.46;101245.50;6257580;22;20027;-77
2021/12/21 07:00:56;;;;;;;2.35;2.15;;;;;;;6.27;64.96;101244.66;6258064;22;20432;-75
2021/12/21 07:03:21;;;;;;;3.60;2.53;;;;;;;6.29;65.85;101253.44;6232824;22;20012;-74
2021/12/21 07:05:48;;;;;;;5.15;2.33;;;;;;;6.31;65.57;101252.38;6285957;22;20027;-74
2021/12/21 07:08:17;;;;;;;3.33;2.65;;;;;;;6.28;65.67;101246.34;6284348;22;20010;-73
2021/12/21 07:10:55;;;;;;;2.97;2.28;;;;;;;6.29;65.72;101241.72;6285131;22;20007;-74
2021/12/21 07:19:03;;;;;;;2.95;2.70;;;;;;;6.31;64.48;101233.34;6171864;23;20095;-74
2021/12/21 07:21:29;;;;;;;2.00;1.90;;;;;;;6.35;64.22;101240.03;6254544;23;20004;-74
2021/12/21 07:23:54;;;;;;;2.10;1.90;;;;;;;6.31;64.89;101234.22;6253691;23;20035;-75
2021/12/21 07:26:20;;;;;;;1.58;1.48;;;;;;;6.28;64.70;101240.09;6253382;23;20059;-74
2021/12/21 07:28:45;;;;;;;1.98;1.80;;;;;;;6.27;64.36;101232.97;6254066;23;20410;-75
2021/12/21 07:31:11;;;;;;;1.77;1.67;;;;;;;6.24;64.99;101225.25;6227562;23;20090;-74
2021/12/21 07:33:36;;;;;;;3.28;1.85;;;;;;;6.25;65.10;101230.47;6252267;23;20012;-74
2021/12/21 07:36:03;;;;;;;3.38;2.40;;;;;;;6.23;64.12;101231.75;6249973;23;20480;-73
2021/12/21 07:38:30;;;;;;;2.35;2.20;;;;;;;6.15;64.10;101204.81;6226000;23;20404;-74
2021/12/21 07:40:57;;;;;;;11.02;2.10;;;;;;;6.22;64.30;101211.91;6227347;23;20099;-74
2021/12/21 07:43:43;;;;;;;1.67;1.58;;;;;;;6.23;64.60;101220.88;6247297;22;20058;-74
2021/12/21 07:46:18;;;;;;;;;;;;;;;6.20;63.82;101227.56;6254108;23;20008;-73
2021/12/21 07:48:43;;;;;;;1.90;1.73;;;;;;;6.01;64.11;101215.75;6250167;23;19927;-73
2021/12/21 07:51:10;;;;;;;1.88;1.65;;;;;;;6.03;64.79;101226.41;6246902;22;20083;-73
2021/12/21 07:53:36;;;;;;;4.88;2.58;;;;;;;5.96;64.27;101215.56;6245005;23;20377;-74
2021/12/21 07:56:14;;;;;;;2.67;2.00;;;;;;;5.94;64.42;101209.50;6247460;22;20410;-74
2021/12/21 07:58:47;;;;;;;2.13;1.95;;;;;;;5.99;64.58;101219.75;6244906;23;20000;-74
2021/12/21 08:01:15;;;;;;;2.38;1.95;;;;;;;5.89;64.58;101214.75;6248009;23;20426;-74
2021/12/21 08:03:46;;;;;;;1.88;1.75;;;;;;;5.86;64.81;101215.19;6250548;23;20008;-75
2021/12/21 08:06:13;;;;;;;3.80;1.90;;;;;;;5.70;64.40;101206.47;6252532;23;20004;-78
2021/12/21 08:08:42;;;;;;;4.97;2.10;;;;;;;5.66;64.37;101207.94;6252075;23;20004;-76
2021/12/21 08:13:47;;;;;;;;;;;;;;;;;;;;;
2021/12/21 08:16:14;;;;;;;3.53;2.13;;;;;;;5.64;64.93;101234.47;6224496;23;20039;-76
2021/12/21 08:18:40;;;;;;;4.53;1.90;;;;;;;5.50;64.56;101230.94;6252319;23;20000;-78
2021/12/21 08:21:19;;;;;;;;;;;;;;;;;;;;;
2021/12/21 08:24:03;;;;;;;4.57;2.45;;;;;;;5.54;64.70;101236.78;6252039;23;20591;-78
2021/12/21 08:26:28;;;;;;;4.43;2.22;;;;;;;5.58;64.56;101246.19;6204292;23;20062;-75
2021/12/21 08:28:54;;;;;;;6.82;2.53;;;;;;;5.65;64.17;101257.00;6203144;23;20012;-74
2021/12/21 08:31:19;;;;;;;4.90;1.80;;;;;;;5.58;64.56;101243.47;6223037;23;20064;-74
2021/12/21 08:33:52;;;;;;;2.20;1.42;;;;;;;5.62;64.05;101241.97;6225339;23;20019;-79
2021/12/21 08:36:18;;;;;;;7.10;2.08;;;;;;;5.50;63.99;101216.56;6254139;23;20022;-76
2021/12/21 08:38:44;;;;;;;5.63;1.95;;;;;;;5.74;64.13;101256.56;6257406;23;20000;-75
2021/12/21 08:41:09;;;;;;;2.88;1.70;;;;;;;5.77;63.46;101250.69;6205309;23;20031;-75
2021/12/21 08:43:41;;;;;;;2.10;1.38;;;;;;;5.68;63.58;101234.84;6229353;23;20041;-75
2021/12/21 08:46:09;;;;;;;4.95;1.40;;;;;;;5.86;64.12;101259.44;6259624;23;20034;-75
2021/12/21 08:49:05;;;;;;;;;;;;;;;;;;;;;
2021/12/21 08:52:04;;;;;;;;;;;;;;;;;;;;;
2021/12/21 08:54:33;;;;;;;2.47;1.88;;;;;;;5.84;63.05;101244.41;6258944;23;20019;-77
2021/12/21 08:57:10;;;;;;;1.60;1.33;;;;;;;5.89;63.95;101247.31;6232092;23;19996;-77
2021/12/21 08:59:35;;;;;;;1.83;1.20;;;;;;;6.01;63.74;101267.34;6258397;23;20011;-75
2021/12/21 09:02:09;;;;;;;4.10;1.85;;;;;;;6.00;62.73;101254.84;6202532;23;20020;-75
2021/12/21 09:04:35;;;;;;;1.33;1.20;;;;;;;6.01;62.81;101251.06;6255977;23;20030;-74
2021/12/21 09:07:03;;;;;;;2.25;1.98;;;;;;;6.05;62.59;101246.03;6232515;23;20087;-75
2021/12/21 09:09:30;;;;;;;7.18;1.77;;;;;;;6.16;62.89;101258.91;6232786;23;20015;-76
2021/12/21 09:11:55;;;;;;;2.53;2.38;;;;;;;6.26;62.57;101274.75;6231178;22;20035;-73
2021/12/21 09:14:31;;;;;;;5.05;1.88;;;;;;;6.21;63.17;101253.69;6204070;23;20479;-77
2021/12/21 09:16:58;;;;;;;9.02;2.97;;;;;;;6.38;63.01;101275.75;6231865;23;20015;-75
2021/12/21 09:19:26;;;;;;;4.80;1.88;;;;;;;6.38;62.61;101278.47;6231549;23;20008;-74
2021/12/21 09:21:52;;;;;;;1.98;1.40;;;;;;;6.37;62.37;101265.94;6254551;23;20000;-74
2021/12/21 09:24:20;;;;;;;1.77;1.67;;;;;;;6.47;62.63;101269.00;6255006;23;20030;-75
2021/12/21 09:26:45;;;;;;;1.77;1.65;;;;;;;6.56;61.83;101279.63;6255877;23;20048;-76
2021/12/21 09:29:11;;;;;;;2.58;1.85;;;;;;;6.63;61.59;101285.84;6203091;23;20008;-75
2021/12/21 09:31:39;;;;;;;4.82;2.03;;;;;;;6.58;61.50;101262.03;6199516;23;20737;-72
2021/12/21 09:34:12;;;;;;;3.95;2.10;;;;;;;6.70;61.95;101264.91;6224135;23;20004;-74
2021/12/21 09:36:38;;;;;;;3.88;2.50;;;;;;;6.86;61.21;101279.00;6201119;23;20318;-74
2021/12/21 09:39:06;;;;;;;3.38;1.77;;;;;;;6.88;61.79;101276.88;6222278;23;20015;-72
2021/12/21 09:41:32;;;;;;;3.40;2.65;;;;;;;6.95;60.90;101283.09;6215033;23;20068;-73
2021/12/21 09:44:15;;;;;;;4.35;2.28;;;;;;;6.94;60.59;101276.03;6218653;23;20135;-72
2021/12/21 09:46:40;;;;;;;3.03;2.00;;;;;;;7.03;60.04;101280.13;6245925;23;20007;-72
2021/12/21 09:49:06;;;;;;;9.85;4.82;;;;;;;7.16;59.63;101306.41;6227232;23;20019;-73
2021/12/21 09:51:34;;;;;;;4.20;2.65;;;;;;;7.08;59.96;101288.47;6254662;23;20011;-74
2021/12/21 09:54:01;;;;;;;3.67;2.17;;;;;;;7.19;59.98;101299.69;6228634;23;20008;-73
2021/12/21 09:56:26;;;;;;;3.30;2.25;;;;;;;7.27;59.90;101302.09;6226221;23;20058;-74
2021/12/21 09:58:55;;;;;;;1.95;1.85;;;;;;;7.39;60.33;101305.78;6203136;23;20008;-74
2021/12/21 10:01:21;;;;;;;6.05;2.28;;;;;;;7.49;59.35;101306.09;6225768;23;20098;-74
2021/12/21 10:03:52;;;;;;;3.22;2.22;;;;;;;7.58;59.08;101308.53;6221906;23;20411;-73
2021/12/21 10:06:18;;;;;;;3.13;2.03;;;;;;;7.56;58.86;101289.69;6174195;23;20430;-73
2021/12/21 10:08:43;;;;;;;4.30;2.35;;;;;;;7.54;58.30;101291.00;6200383;23;20038;-74
2021/12/21 10:11:22;;;;;;;4.85;2.38;;;;;;;7.62;58.45;101298.84;6227834;23;20015;-71
2021/12/21 10:14:07;;;;;;;3.35;2.50;;;;;;;7.65;57.77;101303.84;6245330;22;20022;-73
2021/12/21 10:16:32;;;;;;;5.30;2.38;;;;;;;7.71;58.45;101308.41;6246620;23;19996;-73
2021/12/21 10:19:01;;;;;;;3.42;2.47;;;;;;;7.78;57.43;101298.28;6248015;23;20073;-71
2021/12/21 10:21:27;;;;;;;4.18;2.47;;;;;;;7.95;57.19;101314.00;6246415;23;20087;-73
2021/12/21 10:23:55;;;;;;;3.58;3.13;;;;;;;8.00;57.00;101306.84;6244376;23;20085;-73
2021/12/21 10:26:29;;;;;;;7.22;2.83;;;;;;;8.18;56.58;101316.88;6248069;23;20031;-73
2021/12/21 10:29:05;;;;;;;2.42;2.30;;;;;;;8.42;57.31;101306.09;6250822;23;20022;-72
2021/12/21 10:31:39;;;;;;;7.55;2.47;;;;;;;8.88;56.29;101312.81;6248509;23;20083;-73
2021/12/21 10:34:15;;;;;;;2.92;2.42;;;;;;;9.45;55.53;101308.75;6251208;23;20004;-73
2021/12/21 10:36:56;;;;;;;4.03;2.60;;;;;;;9.82;53.31;101311.22;6251001;23;20083;-73
2021/12/21 10:39:27;;;;;;;4.75;2.15;;;;;;;9.85;53.53;101321.69;6247623;23;20012;-72
2021/12/21 10:42:08;;;;;;;5.25;2.13;;;;;;;9.80;53.10;101297.00;6246079;23;20205;-72
2021/12/21 10:44:34;;;;;;;3.08;1.42;;;;;;;10.06;52.74;101313.91;6247027;23;20011;-73
2021/12/21 10:47:00;;;;;;;9.60;2.83;;;;;;;10.17;51.72;101323.19;6253715;22;20008;-72
2021/12/21 10:49:31;;;;;;;3.22;2.13;;;;;;;10.24;52.21;101312.94;6255085;23;20008;-72
2021/12/21 10:52:01;;;;;;;2.28;2.05;;;;;;;10.30;51.76;101307.31;6254154;22;20368;-73
2021/12/21 10:54:51;;;;;;;4.63;2.40;;;;;;;10.26;52.02;101295.22;6250450;23;20307;-76
2021/12/21 10:57:31;;;;;;;4.30;2.03;;;;;;;10.42;51.40;101303.75;6227121;23;20016;-76
2021/12/21 11:00:01;;;;;;;1.70;1.60;;;;;;;10.44;51.73;101287.94;6249543;23;20027;-73
2021/12/21 11:02:31;;;;;;;2.78;1.35;;;;;;;10.61;52.17;101302.47;6246870;22;20004;-73
2021/12/21 11:05:20;;;;;;;2.50;2.30;;;;;;;10.75;51.58;101307.66;6246106;22;20000;-72
2021/12/21 11:07:56;;;;;;;2.60;2.22;;;;;;;10.75;50.44;101296.72;6252014;22;20007;-74
2021/12/21 11:10:32;;;;;;;3.13;2.85;;;;;;;10.65;50.26;101281.78;6252422;22;20474;-73
2021/12/21 11:13:13;;;;;;;;;;;;;;;;;;;;;
2021/12/21 11:16:08;;;;;;;3.22;1.88;;;;;;;10.75;50.01;101291.25;6248923;23;20026;-74
2021/12/21 11:18:37;;;;;;;4.45;3.05;;;;;;;10.66;48.79;101299.03;6154038;23;20592;-73
2021/12/21 11:21:12;;;;;;;2.85;2.65;;;;;;;10.50;49.71;101283.38;6244574;23;20038;-71
2021/12/21 11:23:38;;;;;;;5.95;3.10;;;;;;;10.27;48.94;101275.00;6239769;23;20000;-72
2021/12/21 11:26:14;;;;;;;2.60;2.40;;;;;;;10.06;49.96;101271.06;6241005;23;20012;-72
2021/12/21 11:28:40;;;;;;;;;;;;;;;9.99;49.32;101284.00;6246421;22;20015;-71
2021/12/21 11:31:08;;;;;;;3.40;3.13;;;;;;;9.74;50.17;101271.47;6244410;23;19974;-74
2021/12/21 11:33:41;;;;;;;2.28;1.90;;;;;;;9.74;50.89;101282.38;6245910;23;20011;-73
2021/12/21 11:39:04;;;;;;;3.87;3.50;;;;;;;9.63;50.82;101279.69;6173475;22;20013;-73
2021/12/21 11:41:30;;;;;;;6.35;3.72;;;;;;;9.45;49.78;101284.19;6242837;22;20305;-70
2021/12/21 11:44:21;;;;;;;4.38;3.15;;;;;;;9.23;50.22;101276.59;6242304;22;20434;-74
2021/12/21 11:46:55;;;;;;;5.00;3.38;;;;;;;9.88;52.00;101258.38;6244860;23;20023;-72
2021/12/21 11:50:07;;;;;;;;;;;;;;;;;;;;;
2021/12/21 11:52:51;;;;;;;7.20;3.38;;;;;;;14.12;48.41;101258.75;6248576;23;20083;-71
2021/12/21 11:55:20;;;;;;;3.38;3.08;;;;;;;15.34;46.61;101250.06;6245898;22;19997;-72
2021/12/21 11:57:55;;;;;;;4.03;3.45;;;;;;;16.36;43.24;101259.94;6242504;22;20004;-72
2021/12/21 12:00:28;;;;;;;5.18;3.40;;;;;;;16.04;40.12;101258.44;6242197;23;20032;-73
2021/12/21 12:02:55;;;;;;;3.83;2.80;;;;;;;15.14;39.95;101239.91;6244556;23;20008;-71
2021/12/21 12:05:27;;;;;;;3.20;2.90;;;;;;;14.30;40.14;101242.84;6219916;23;20015;-71
2021/12/21 12:08:12;;;;;;;3.83;3.55;;;;;;;13.53;41.29;101245.25;6241803;23;20006;-74
2021/12/21 12:10:50;;;;;;;5.22;3.83;;;;;;;14.02;43.03;101236.69;6247748;22;20041;-72
2021/12/21 12:13:40;;;;;;;5.88;3.30;;;;;;;14.89;41.77;101238.00;6266166;22;20016;-71
2021/12/21 12:16:13;;;;;;;5.03;4.35;;;;;;;15.55;40.00;101234.34;6231156;22;20004;-73
2021/12/21 12:18:52;;;;;;;4.18;3.75;;;;;;;16.22;39.29;101226.63;6277374;22;20024;-72
2021/12/21 12:21:30;;;;;;;6.75;4.90;;;;;;;16.97;37.83;101229.44;6277684;22;20023;-71
2021/12/21 12:24:04;;;;;;;8.27;4.07;;;;;;;17.58;36.68;101231.59;6249475;22;20046;-72
2021/12/21 12:26:38;;;;;;;4.22;3.92;;;;;;;18.03;35.71;101211.97;6277365;22;20035;-71
2021/12/21 12:29:16;;;;;;;7.50;4.57;;;;;;;18.47;34.30;101212.75;6285177;22;20134;-74
2021/12/21 12:31:57;;;;;;;;;;;;;;;;;;;;;
2021/12/21 12:34:26;;;;;;;4.93;3.80;;;;;;;19.29;32.86;101219.72;6276932;22;20478;-73
2021/12/21 12:36:54;;;;;;;3.08;2.90;;;;;;;19.04;32.70;101204.38;6246782;22;19999;-74
2021/12/21 12:39:28;;;;;;;3.63;3.30;;;;;;;18.76;32.29;101218.13;6246061;22;20495;-70
2021/12/21 12:42:01;;;;;;;3.53;3.10;;;;;;;17.95;32.20;101207.94;6245186;22;20050;-71
2021/12/21 12:44:46;;;;;;;3.78;3.55;;;;;;;17.09;33.07;101216.88;6246341;22;20011;-71
2021/12/21 12:47:15;;;;;;;4.18;3.88;;;;;;;16.37;33.90;101213.88;6273135;22;20433;-71
2021/12/21 12:49:48;;;;;;;5.43;3.83;;;;;;;16.04;34.78;101205.22;6248800;22;20307;-74
2021/12/21 12:52:31;;;;;;;7.45;4.03;;;;;;;15.61;35.13;101202.03;6247190;22;20015;-70
2021/12/21 12:55:13;;;;;;;8.18;3.60;;;;;;;15.19;35.83;101191.13;6234091;22;20004;-74
2021/12/21 12:57:51;;;;;;;3.67;3.38;;;;;;;14.88;36.20;101197.78;6284059;22;20006;-74
2021/12/21 13:00:30;;;;;;;5.22;3.45;;;;;;;14.68;36.54;101202.19;6279868;22;19996;-73
2021/12/21 13:03:13;;;;;;;5.70;3.28;;;;;;;14.37;36.73;101204.88;6278574;22;20080;-71
2021/12/21 13:05:55;;;;;;;6.75;3.15;;;;;;;14.23;37.92;101198.25;6279879;22;19999;-74
2021/12/21 13:08:30;;;;;;;4.20;2.33;;;;;;;14.54;37.27;101199.09;6252974;22;20065;-74